sensor_id;sensor_type;location;lat;lon;timestamp;P1;durP1;ratioP1;P2;durP2;ratioP2
72949;SDS011;64868;45.710;9.590;2023-01-29T00:01:22;30.85;;;13.30;;
72949;SDS011;64868;45.710;9.590;2023-01-29T00:03:50;29.70;;;14.00;;
72949;SDS011;64868;45.710;9.590;2023-01-29T00:06:20;29.98;;;12.98;;
72949;SDS011;64868;45.710;9.590;2023-01-29T00:08:53;27.80;;;12.18;;
72949;SDS011;64868;45.710;9.590;2023-01-29T00:11:25;31.70;;;13.60;;
72949;SDS011;64868;45.710;9.590;2023-01-29T00:13:55;27.13;;;12.73;;
72949;SDS011;64868;45.710;9.590;2023-01-29T00:16:25;28.38;;;13.70;;
72949;SDS011;64868;45.710;9.590;2023-01-29T00:18:57;28.83;;;12.60;;
72949;SDS011;64868;45.710;9.590;2023-01-29T00:21:27;30.10;;;13.35;;
72949;SDS011;64868;45.710;9.590;2023-01-29T00:23:59;26.25;;;12.00;;
72949;SDS011;64868;45.710;9.590;2023-01-29T00:26:32;26.77;;;12.50;;
72949;SDS011;64868;45.710;9.590;2023-01-29T00:29:05;28.42;;;12.95;;
72949;SDS011;64868;45.710;9.590;2023-01-29T00:31:35;25.98;;;12.30;;
72949;SDS011;64868;45.710;9.590;2023-01-29T00:34:08;30.17;;;12.98;;
72949;SDS011;64868;45.710;9.590;2023-01-29T00:36:38;27.05;;;12.15;;
72949;SDS011;64868;45.710;9.590;2023-01-29T00:39:10;28.48;;;12.90;;
72949;SDS011;64868;45.710;9.590;2023-01-29T00:41:40;28.73;;;12.80;;
72949;SDS011;64868;45.710;9.590;2023-01-29T00:44:27;28.95;;;12.40;;
72949;SDS011;64868;45.710;9.590;2023-01-29T00:47:15;24.88;;;11.98;;
72949;SDS011;64868;45.710;9.590;2023-01-29T00:50:00;27.02;;;12.35;;
72949;SDS011;64868;45.710;9.590;2023-01-29T00:52:34;27.70;;;13.30;;
72949;SDS011;64868;45.710;9.590;2023-01-29T00:55:06;28.10;;;12.57;;
72949;SDS011;64868;45.710;9.590;2023-01-29T00:57:39;27.98;;;12.45;;
72949;SDS011;64868;45.710;9.590;2023-01-29T01:00:12;28.90;;;12.63;;
72949;SDS011;64868;45.710;9.590;2023-01-29T01:02:47;30.10;;;13.40;;
72949;SDS011;64868;45.710;9.590;2023-01-29T01:05:35;27.58;;;12.55;;
72949;SDS011;64868;45.710;9.590;2023-01-29T01:08:03;30.35;;;12.63;;
72949;SDS011;64868;45.710;9.590;2023-01-29T01:10:56;27.48;;;11.27;;
72949;SDS011;64868;45.710;9.590;2023-01-29T01:13:31;25.45;;;12.25;;
72949;SDS011;64868;45.710;9.590;2023-01-29T01:16:00;27.73;;;12.15;;
72949;SDS011;64868;45.710;9.590;2023-01-29T01:18:30;29.50;;;12.82;;
72949;SDS011;64868;45.710;9.590;2023-01-29T01:20:57;26.88;;;11.48;;
72949;SDS011;64868;45.710;9.590;2023-01-29T01:23:30;29.67;;;12.55;;
72949;SDS011;64868;45.710;9.590;2023-01-29T01:26:05;28.77;;;12.13;;
72949;SDS011;64868;45.710;9.590;2023-01-29T01:28:39;29.25;;;13.10;;
72949;SDS011;64868;45.710;9.590;2023-01-29T01:31:12;26.83;;;12.00;;
72949;SDS011;64868;45.710;9.590;2023-01-29T01:33:45;27.13;;;12.40;;
72949;SDS011;64868;45.710;9.590;2023-01-29T01:36:18;27.27;;;11.73;;
72949;SDS011;64868;45.710;9.590;2023-01-29T01:38:47;27.08;;;12.27;;
72949;SDS011;64868;45.710;9.590;2023-01-29T01:41:21;25.92;;;12.23;;
72949;SDS011;64868;45.710;9.590;2023-01-29T01:43:52;25.70;;;11.55;;
72949;SDS011;64868;45.710;9.590;2023-01-29T01:46:24;29.10;;;12.32;;
72949;SDS011;64868;45.710;9.590;2023-01-29T01:49:13;26.70;;;10.82;;
72949;SDS011;64868;45.710;9.590;2023-01-29T01:51:48;24.38;;;11.32;;
72949;SDS011;64868;45.710;9.590;2023-01-29T01:56:50;29.75;;;12.88;;
72949;SDS011;64868;45.710;9.590;2023-01-29T01:59:22;28.52;;;12.32;;
72949;SDS011;64868;45.710;9.590;2023-01-29T02:01:55;29.23;;;12.45;;
72949;SDS011;64868;45.710;9.590;2023-01-29T02:04:36;25.13;;;11.55;;
72949;SDS011;64868;45.710;9.590;2023-01-29T02:07:33;26.70;;;11.55;;
72949;SDS011;64868;45.710;9.590;2023-01-29T02:10:25;27.92;;;12.18;;
72949;SDS011;64868;45.710;9.590;2023-01-29T02:13:00;29.13;;;12.45;;
72949;SDS011;64868;45.710;9.590;2023-01-29T02:15:33;24.77;;;11.43;;
72949;SDS011;64868;45.710;9.590;2023-01-29T02:18:08;28.77;;;11.52;;
72949;SDS011;64868;45.710;9.590;2023-01-29T02:20:38;26.95;;;11.85;;
72949;SDS011;64868;45.710;9.590;2023-01-29T02:29:17;28.05;;;11.55;;
72949;SDS011;64868;45.710;9.590;2023-01-29T02:31:34;24.85;;;11.75;;
72949;SDS011;64868;45.710;9.590;2023-01-29T02:34:20;27.75;;;11.32;;
72949;SDS011;64868;45.710;9.590;2023-01-29T02:37:25;27.58;;;11.85;;
72949;SDS011;64868;45.710;9.590;2023-01-29T02:42:50;25.65;;;11.25;;
72949;SDS011;64868;45.710;9.590;2023-01-29T02:48:23;26.08;;;12.40;;
72949;SDS011;64868;45.710;9.590;2023-01-29T02:50:57;26.10;;;11.43;;
72949;SDS011;64868;45.710;9.590;2023-01-29T02:53:38;30.08;;;11.27;;
72949;SDS011;64868;45.710;9.590;2023-01-29T02:56:15;25.42;;;11.85;;
72949;SDS011;64868;45.710;9.590;2023-01-29T02:58:50;29.33;;;11.68;;
72949;SDS011;64868;45.710;9.590;2023-01-29T03:01:32;27.35;;;12.80;;
72949;SDS011;64868;45.710;9.590;2023-01-29T03:04:07;29.30;;;12.07;;
72949;SDS011;64868;45.710;9.590;2023-01-29T03:06:44;26.85;;;11.55;;
72949;SDS011;64868;45.710;9.590;2023-01-29T03:09:18;23.52;;;10.30;;
72949;SDS011;64868;45.710;9.590;2023-01-29T03:11:53;25.90;;;11.00;;
72949;SDS011;64868;45.710;9.590;2023-01-29T03:14:32;24.08;;;10.90;;
72949;SDS011;64868;45.710;9.590;2023-01-29T03:17:22;27.50;;;12.10;;
72949;SDS011;64868;45.710;9.590;2023-01-29T03:19:54;23.65;;;10.88;;
72949;SDS011;64868;45.710;9.590;2023-01-29T03:22:26;28.77;;;12.32;;
72949;SDS011;64868;45.710;9.590;2023-01-29T03:24:56;24.42;;;10.82;;
72949;SDS011;64868;45.710;9.590;2023-01-29T03:27:52;23.90;;;10.75;;
72949;SDS011;64868;45.710;9.590;2023-01-29T03:30:43;23.35;;;10.30;;
72949;SDS011;64868;45.710;9.590;2023-01-29T03:33:44;25.88;;;10.85;;
72949;SDS011;64868;45.710;9.590;2023-01-29T03:36:20;28.73;;;10.73;;
72949;SDS011;64868;45.710;9.590;2023-01-29T03:38:53;24.80;;;11.07;;
72949;SDS011;64868;45.710;9.590;2023-01-29T03:41:32;25.13;;;11.13;;
72949;SDS011;64868;45.710;9.590;2023-01-29T03:44:15;26.13;;;11.40;;
72949;SDS011;64868;45.710;9.590;2023-01-29T03:46:50;25.13;;;10.73;;
72949;SDS011;64868;45.710;9.590;2023-01-29T03:49:22;26.17;;;11.82;;
72949;SDS011;64868;45.710;9.590;2023-01-29T03:52:09;25.30;;;10.18;;
72949;SDS011;64868;45.710;9.590;2023-01-29T03:54:55;26.60;;;10.57;;
72949;SDS011;64868;45.710;9.590;2023-01-29T03:57:33;24.05;;;10.48;;
72949;SDS011;64868;45.710;9.590;2023-01-29T04:00:07;25.63;;;11.40;;
72949;SDS011;64868;45.710;9.590;2023-01-29T04:02:42;23.20;;;11.25;;
72949;SDS011;64868;45.710;9.590;2023-01-29T04:05:21;22.83;;;10.52;;
72949;SDS011;64868;45.710;9.590;2023-01-29T04:07:54;23.83;;;10.20;;
72949;SDS011;64868;45.710;9.590;2023-01-29T04:10:26;23.60;;;10.35;;
72949;SDS011;64868;45.710;9.590;2023-01-29T04:13:03;27.05;;;10.82;;
72949;SDS011;64868;45.710;9.590;2023-01-29T04:15:35;23.60;;;10.25;;
72949;SDS011;64868;45.710;9.590;2023-01-29T04:18:14;24.88;;;10.65;;
72949;SDS011;64868;45.710;9.590;2023-01-29T04:20:44;25.25;;;10.68;;
72949;SDS011;64868;45.710;9.590;2023-01-29T04:23:20;29.05;;;11.68;;
72949;SDS011;64868;45.710;9.590;2023-01-29T04:25:52;25.08;;;11.10;;
72949;SDS011;64868;45.710;9.590;2023-01-29T04:29:24;26.77;;;10.63;;
72949;SDS011;64868;45.710;9.590;2023-01-29T04:31:49;25.40;;;10.32;;
72949;SDS011;64868;45.710;9.590;2023-01-29T04:34:27;25.15;;;10.85;;
72949;SDS011;64868;45.710;9.590;2023-01-29T04:37:13;26.30;;;11.05;;
72949;SDS011;64868;45.710;9.590;2023-01-29T04:39:56;25.13;;;10.65;;
72949;SDS011;64868;45.710;9.590;2023-01-29T04:42:44;24.80;;;11.40;;
72949;SDS011;64868;45.710;9.590;2023-01-29T04:51:06;29.35;;;11.65;;
72949;SDS011;64868;45.710;9.590;2023-01-29T04:56:28;26.40;;;11.35;;
72949;SDS011;64868;45.710;9.590;2023-01-29T04:59:05;24.73;;;10.82;;
72949;SDS011;64868;45.710;9.590;2023-01-29T05:01:40;27.00;;;11.10;;
72949;SDS011;64868;45.710;9.590;2023-01-29T05:04:11;25.88;;;11.65;;
72949;SDS011;64868;45.710;9.590;2023-01-29T05:06:48;25.73;;;11.32;;
72949;SDS011;64868;45.710;9.590;2023-01-29T05:09:19;28.05;;;11.07;;
72949;SDS011;64868;45.710;9.590;2023-01-29T05:11:51;26.75;;;11.13;;
72949;SDS011;64868;45.710;9.590;2023-01-29T05:14:22;27.30;;;11.13;;
72949;SDS011;64868;45.710;9.590;2023-01-29T05:16:54;28.92;;;12.52;;
72949;SDS011;64868;45.710;9.590;2023-01-29T05:19:31;28.75;;;11.20;;
72949;SDS011;64868;45.710;9.590;2023-01-29T05:22:01;28.98;;;12.50;;
72949;SDS011;64868;45.710;9.590;2023-01-29T05:24:37;25.75;;;11.68;;
72949;SDS011;64868;45.710;9.590;2023-01-29T05:30:06;24.95;;;11.15;;
72949;SDS011;64868;45.710;9.590;2023-01-29T05:32:37;28.15;;;11.98;;
72949;SDS011;64868;45.710;9.590;2023-01-29T05:35:10;26.40;;;11.27;;
72949;SDS011;64868;45.710;9.590;2023-01-29T05:37:38;26.73;;;11.05;;
72949;SDS011;64868;45.710;9.590;2023-01-29T05:40:08;25.33;;;11.10;;
72949;SDS011;64868;45.710;9.590;2023-01-29T05:42:36;24.90;;;11.23;;
72949;SDS011;64868;45.710;9.590;2023-01-29T05:45:07;27.90;;;12.55;;
72949;SDS011;64868;45.710;9.590;2023-01-29T05:47:40;27.27;;;10.85;;
72949;SDS011;64868;45.710;9.590;2023-01-29T05:50:10;30.30;;;11.88;;
72949;SDS011;64868;45.710;9.590;2023-01-29T05:52:41;28.45;;;11.63;;
72949;SDS011;64868;45.710;9.590;2023-01-29T05:55:12;28.40;;;11.05;;
72949;SDS011;64868;45.710;9.590;2023-01-29T05:57:42;26.90;;;11.82;;
72949;SDS011;64868;45.710;9.590;2023-01-29T06:00:12;27.77;;;11.50;;
72949;SDS011;64868;45.710;9.590;2023-01-29T06:02:46;29.63;;;11.85;;
72949;SDS011;64868;45.710;9.590;2023-01-29T06:05:19;27.35;;;11.13;;
72949;SDS011;64868;45.710;9.590;2023-01-29T06:07:51;28.00;;;11.60;;
72949;SDS011;64868;45.710;9.590;2023-01-29T06:10:21;24.70;;;10.98;;
72949;SDS011;64868;45.710;9.590;2023-01-29T06:12:52;25.73;;;11.15;;
72949;SDS011;64868;45.710;9.590;2023-01-29T06:15:24;26.42;;;11.02;;
72949;SDS011;64868;45.710;9.590;2023-01-29T06:17:54;22.17;;;10.52;;
72949;SDS011;64868;45.710;9.590;2023-01-29T06:20:28;27.13;;;11.60;;
72949;SDS011;64868;45.710;9.590;2023-01-29T06:23:00;23.65;;;10.27;;
72949;SDS011;64868;45.710;9.590;2023-01-29T06:25:33;22.25;;;10.00;;
72949;SDS011;64868;45.710;9.590;2023-01-29T06:28:05;25.13;;;10.95;;
72949;SDS011;64868;45.710;9.590;2023-01-29T06:30:38;27.40;;;12.32;;
72949;SDS011;64868;45.710;9.590;2023-01-29T06:33:11;24.92;;;10.38;;
72949;SDS011;64868;45.710;9.590;2023-01-29T06:35:41;27.95;;;10.63;;
72949;SDS011;64868;45.710;9.590;2023-01-29T06:38:09;24.13;;;10.80;;
72949;SDS011;64868;45.710;9.590;2023-01-29T06:40:37;25.50;;;10.48;;
72949;SDS011;64868;45.710;9.590;2023-01-29T06:43:09;27.10;;;10.95;;
72949;SDS011;64868;45.710;9.590;2023-01-29T06:45:51;24.83;;;10.73;;
72949;SDS011;64868;45.710;9.590;2023-01-29T06:48:24;25.65;;;10.45;;
72949;SDS011;64868;45.710;9.590;2023-01-29T06:50:59;25.80;;;9.80;;
72949;SDS011;64868;45.710;9.590;2023-01-29T06:53:32;22.55;;;10.30;;
72949;SDS011;64868;45.710;9.590;2023-01-29T06:56:06;22.13;;;10.07;;
72949;SDS011;64868;45.710;9.590;2023-01-29T06:58:39;26.15;;;10.63;;
72949;SDS011;64868;45.710;9.590;2023-01-29T07:01:08;23.75;;;10.65;;
72949;SDS011;64868;45.710;9.590;2023-01-29T07:03:41;25.67;;;10.35;;
72949;SDS011;64868;45.710;9.590;2023-01-29T07:06:17;23.60;;;10.27;;
72949;SDS011;64868;45.710;9.590;2023-01-29T07:08:47;22.63;;;10.15;;
72949;SDS011;64868;45.710;9.590;2023-01-29T07:11:17;26.83;;;10.98;;
72949;SDS011;64868;45.710;9.590;2023-01-29T07:13:50;22.63;;;10.25;;
72949;SDS011;64868;45.710;9.590;2023-01-29T07:16:22;24.42;;;11.05;;
72949;SDS011;64868;45.710;9.590;2023-01-29T07:18:53;24.95;;;11.18;;
72949;SDS011;64868;45.710;9.590;2023-01-29T07:21:20;27.30;;;11.38;;
72949;SDS011;64868;45.710;9.590;2023-01-29T07:23:53;25.13;;;11.15;;
72949;SDS011;64868;45.710;9.590;2023-01-29T07:26:21;26.48;;;11.55;;
72949;SDS011;64868;45.710;9.590;2023-01-29T07:28:54;27.75;;;11.20;;
72949;SDS011;64868;45.710;9.590;2023-01-29T07:31:24;27.98;;;11.82;;
72949;SDS011;64868;45.710;9.590;2023-01-29T07:33:54;25.33;;;11.82;;
72949;SDS011;64868;45.710;9.590;2023-01-29T07:36:24;25.02;;;11.35;;
72949;SDS011;64868;45.710;9.590;2023-01-29T07:38:57;26.70;;;11.43;;
72949;SDS011;64868;45.710;9.590;2023-01-29T07:41:27;27.08;;;11.35;;
72949;SDS011;64868;45.710;9.590;2023-01-29T07:44:00;26.80;;;11.23;;
72949;SDS011;64868;45.710;9.590;2023-01-29T07:46:32;25.92;;;11.98;;
72949;SDS011;64868;45.710;9.590;2023-01-29T07:49:00;28.05;;;11.35;;
72949;SDS011;64868;45.710;9.590;2023-01-29T07:51:31;25.23;;;11.27;;
72949;SDS011;64868;45.710;9.590;2023-01-29T07:54:00;25.38;;;11.13;;
72949;SDS011;64868;45.710;9.590;2023-01-29T07:56:31;24.40;;;10.73;;
72949;SDS011;64868;45.710;9.590;2023-01-29T07:59:01;28.15;;;11.48;;
72949;SDS011;64868;45.710;9.590;2023-01-29T08:01:34;24.33;;;11.38;;
72949;SDS011;64868;45.710;9.590;2023-01-29T08:04:06;24.83;;;10.82;;
72949;SDS011;64868;45.710;9.590;2023-01-29T08:06:39;24.27;;;11.18;;
72949;SDS011;64868;45.710;9.590;2023-01-29T08:09:12;26.13;;;12.10;;
72949;SDS011;64868;45.710;9.590;2023-01-29T08:11:42;27.92;;;11.45;;
72949;SDS011;64868;45.710;9.590;2023-01-29T08:14:10;24.58;;;11.63;;
72949;SDS011;64868;45.710;9.590;2023-01-29T08:16:42;24.13;;;11.13;;
72949;SDS011;64868;45.710;9.590;2023-01-29T08:19:13;23.48;;;11.13;;
72949;SDS011;64868;45.710;9.590;2023-01-29T08:21:43;21.92;;;10.13;;
72949;SDS011;64868;45.710;9.590;2023-01-29T08:24:16;24.77;;;10.60;;
72949;SDS011;64868;45.710;9.590;2023-01-29T08:26:43;25.40;;;10.77;;
72949;SDS011;64868;45.710;9.590;2023-01-29T08:29:14;24.40;;;11.23;;
72949;SDS011;64868;45.710;9.590;2023-01-29T08:31:44;28.08;;;11.23;;
72949;SDS011;64868;45.710;9.590;2023-01-29T08:34:17;23.05;;;10.93;;
72949;SDS011;64868;45.710;9.590;2023-01-29T08:36:47;24.33;;;11.07;;
72949;SDS011;64868;45.710;9.590;2023-01-29T08:39:20;25.63;;;11.57;;
72949;SDS011;64868;45.710;9.590;2023-01-29T08:41:45;27.67;;;11.57;;
72949;SDS011;64868;45.710;9.590;2023-01-29T08:44:18;26.92;;;11.30;;
72949;SDS011;64868;45.710;9.590;2023-01-29T08:46:50;28.08;;;11.75;;
72949;SDS011;64868;45.710;9.590;2023-01-29T08:51:51;26.42;;;11.30;;
72949;SDS011;64868;45.710;9.590;2023-01-29T08:54:21;25.52;;;11.02;;
72949;SDS011;64868;45.710;9.590;2023-01-29T08:56:51;26.70;;;12.10;;
72949;SDS011;64868;45.710;9.590;2023-01-29T08:59:21;24.52;;;11.27;;
72949;SDS011;64868;45.710;9.590;2023-01-29T09:01:54;23.20;;;10.88;;
72949;SDS011;64868;45.710;9.590;2023-01-29T09:04:24;21.25;;;10.52;;
72949;SDS011;64868;45.710;9.590;2023-01-29T09:06:52;21.63;;;10.50;;
72949;SDS011;64868;45.710;9.590;2023-01-29T09:09:24;23.38;;;10.50;;
72949;SDS011;64868;45.710;9.590;2023-01-29T09:11:54;22.77;;;9.80;;
72949;SDS011;64868;45.710;9.590;2023-01-29T09:14:27;22.58;;;10.30;;
72949;SDS011;64868;45.710;9.590;2023-01-29T09:17:00;24.63;;;11.23;;
72949;SDS011;64868;45.710;9.590;2023-01-29T09:19:30;23.35;;;11.80;;
72949;SDS011;64868;45.710;9.590;2023-01-29T09:21:58;20.20;;;10.68;;
72949;SDS011;64868;45.710;9.590;2023-01-29T09:24:28;22.10;;;11.70;;
72949;SDS011;64868;45.710;9.590;2023-01-29T09:27:01;22.40;;;11.35;;
72949;SDS011;64868;45.710;9.590;2023-01-29T09:29:33;24.13;;;12.93;;
72949;SDS011;64868;45.710;9.590;2023-01-29T09:32:03;22.02;;;13.18;;
72949;SDS011;64868;45.710;9.590;2023-01-29T09:34:33;23.02;;;12.73;;
72949;SDS011;64868;45.710;9.590;2023-01-29T09:37:01;24.02;;;13.70;;
72949;SDS011;64868;45.710;9.590;2023-01-29T09:39:31;25.02;;;14.52;;
72949;SDS011;64868;45.710;9.590;2023-01-29T09:47:31;23.42;;;13.52;;
72949;SDS011;64868;45.710;9.590;2023-01-29T09:50:23;22.98;;;13.68;;
72949;SDS011;64868;45.710;9.590;2023-01-29T09:53:02;23.45;;;13.35;;
72949;SDS011;64868;45.710;9.590;2023-01-29T09:55:38;20.60;;;12.88;;
72949;SDS011;64868;45.710;9.590;2023-01-29T10:00:50;22.42;;;13.63;;
72949;SDS011;64868;45.710;9.590;2023-01-29T10:06:42;30.58;;;19.10;;
72949;SDS011;64868;45.710;9.590;2023-01-29T10:09:40;25.40;;;15.55;;
72949;SDS011;64868;45.710;9.590;2023-01-29T10:15:05;26.73;;;16.05;;
72949;SDS011;64868;45.710;9.590;2023-01-29T10:18:00;26.08;;;15.80;;
72949;SDS011;64868;45.710;9.590;2023-01-29T10:23:37;25.02;;;15.65;;
72949;SDS011;64868;45.710;9.590;2023-01-29T10:26:13;23.60;;;15.07;;
72949;SDS011;64868;45.710;9.590;2023-01-29T10:28:44;31.67;;;17.48;;
72949;SDS011;64868;45.710;9.590;2023-01-29T10:31:17;26.52;;;16.63;;
72949;SDS011;64868;45.710;9.590;2023-01-29T10:33:53;24.70;;;14.90;;
72949;SDS011;64868;45.710;9.590;2023-01-29T10:36:34;29.02;;;15.32;;
72949;SDS011;64868;45.710;9.590;2023-01-29T10:39:10;28.50;;;15.27;;
72949;SDS011;64868;45.710;9.590;2023-01-29T10:42:01;31.17;;;16.65;;
72949;SDS011;64868;45.710;9.590;2023-01-29T10:44:45;24.90;;;15.10;;
72949;SDS011;64868;45.710;9.590;2023-01-29T10:47:40;33.70;;;19.00;;
72949;SDS011;64868;45.710;9.590;2023-01-29T10:50:25;25.90;;;15.70;;
72949;SDS011;64868;45.710;9.590;2023-01-29T10:58:55;21.73;;;14.10;;
72949;SDS011;64868;45.710;9.590;2023-01-29T11:01:32;23.65;;;15.32;;
72949;SDS011;64868;45.710;9.590;2023-01-29T11:04:03;28.73;;;15.23;;
72949;SDS011;64868;45.710;9.590;2023-01-29T11:06:38;23.55;;;14.63;;
72949;SDS011;64868;45.710;9.590;2023-01-29T11:12:17;22.92;;;14.60;;
72949;SDS011;64868;45.710;9.590;2023-01-29T11:14:56;22.08;;;15.05;;
72949;SDS011;64868;45.710;9.590;2023-01-29T11:17:29;26.77;;;15.45;;
72949;SDS011;64868;45.710;9.590;2023-01-29T11:20:02;23.98;;;15.23;;
72949;SDS011;64868;45.710;9.590;2023-01-29T11:22:57;24.63;;;14.80;;
72949;SDS011;64868;45.710;9.590;2023-01-29T11:25:27;22.38;;;13.82;;
72949;SDS011;64868;45.710;9.590;2023-01-29T11:27:58;23.88;;;14.32;;
72949;SDS011;64868;45.710;9.590;2023-01-29T11:33:25;24.20;;;13.90;;
72949;SDS011;64868;45.710;9.590;2023-01-29T11:35:58;22.65;;;13.15;;
72949;SDS011;64868;45.710;9.590;2023-01-29T11:38:46;23.73;;;13.55;;
72949;SDS011;64868;45.710;9.590;2023-01-29T11:41:15;22.38;;;14.18;;
72949;SDS011;64868;45.710;9.590;2023-01-29T11:43:46;23.65;;;14.25;;
72949;SDS011;64868;45.710;9.590;2023-01-29T11:46:16;21.75;;;13.30;;
72949;SDS011;64868;45.710;9.590;2023-01-29T11:48:49;22.40;;;13.75;;
72949;SDS011;64868;45.710;9.590;2023-01-29T11:51:22;22.13;;;13.80;;
72949;SDS011;64868;45.710;9.590;2023-01-29T11:54:00;24.02;;;14.20;;
72949;SDS011;64868;45.710;9.590;2023-01-29T11:56:33;24.17;;;15.27;;
72949;SDS011;64868;45.710;9.590;2023-01-29T11:59:13;26.13;;;14.45;;
72949;SDS011;64868;45.710;9.590;2023-01-29T12:01:47;25.10;;;14.73;;
72949;SDS011;64868;45.710;9.590;2023-01-29T12:04:24;25.88;;;14.95;;
72949;SDS011;64868;45.710;9.590;2023-01-29T12:06:55;26.25;;;14.43;;
72949;SDS011;64868;45.710;9.590;2023-01-29T12:09:28;24.25;;;13.82;;
72949;SDS011;64868;45.710;9.590;2023-01-29T12:12:07;25.10;;;14.23;;
72949;SDS011;64868;45.710;9.590;2023-01-29T12:15:01;29.88;;;15.35;;
72949;SDS011;64868;45.710;9.590;2023-01-29T12:17:43;25.80;;;13.73;;
72949;SDS011;64868;45.710;9.590;2023-01-29T12:20:19;27.35;;;15.10;;
72949;SDS011;64868;45.710;9.590;2023-01-29T12:25:57;30.08;;;14.75;;
72949;SDS011;64868;45.710;9.590;2023-01-29T12:31:41;47.08;;;23.42;;
72949;SDS011;64868;45.710;9.590;2023-01-29T12:39:45;27.20;;;14.32;;
72949;SDS011;64868;45.710;9.590;2023-01-29T12:42:20;27.27;;;14.18;;
72949;SDS011;64868;45.710;9.590;2023-01-29T12:44:52;24.55;;;13.13;;
72949;SDS011;64868;45.710;9.590;2023-01-29T12:50:02;26.55;;;14.75;;
72949;SDS011;64868;45.710;9.590;2023-01-29T12:56:00;25.92;;;13.82;;
72949;SDS011;64868;45.710;9.590;2023-01-29T12:58:37;26.52;;;14.23;;
72949;SDS011;64868;45.710;9.590;2023-01-29T13:01:11;28.58;;;14.38;;
72949;SDS011;64868;45.710;9.590;2023-01-29T13:06:32;31.08;;;16.30;;
72949;SDS011;64868;45.710;9.590;2023-01-29T13:09:07;27.25;;;14.70;;
72949;SDS011;64868;45.710;9.590;2023-01-29T13:11:42;27.25;;;13.93;;
72949;SDS011;64868;45.710;9.590;2023-01-29T13:14:43;29.25;;;14.60;;
72949;SDS011;64868;45.710;9.590;2023-01-29T13:20:12;30.20;;;14.38;;
72949;SDS011;64868;45.710;9.590;2023-01-29T13:22:45;28.23;;;13.98;;
72949;SDS011;64868;45.710;9.590;2023-01-29T13:25:18;25.30;;;13.57;;
72949;SDS011;64868;45.710;9.590;2023-01-29T13:27:49;28.08;;;14.20;;
72949;SDS011;64868;45.710;9.590;2023-01-29T13:30:25;30.10;;;13.73;;
72949;SDS011;64868;45.710;9.590;2023-01-29T13:32:56;26.88;;;13.95;;
72949;SDS011;64868;45.710;9.590;2023-01-29T13:35:47;25.85;;;13.27;;
72949;SDS011;64868;45.710;9.590;2023-01-29T13:38:25;26.58;;;14.25;;
72949;SDS011;64868;45.710;9.590;2023-01-29T13:41:05;29.90;;;13.85;;
72949;SDS011;64868;45.710;9.590;2023-01-29T13:43:40;27.27;;;13.30;;
72949;SDS011;64868;45.710;9.590;2023-01-29T13:46:18;29.83;;;14.05;;
72949;SDS011;64868;45.710;9.590;2023-01-29T13:48:48;31.52;;;13.55;;
72949;SDS011;64868;45.710;9.590;2023-01-29T13:51:21;26.63;;;14.23;;
72949;SDS011;64868;45.710;9.590;2023-01-29T13:54:06;29.77;;;14.60;;
72949;SDS011;64868;45.710;9.590;2023-01-29T13:56:45;24.58;;;13.18;;
72949;SDS011;64868;45.710;9.590;2023-01-29T14:00:08;26.83;;;13.45;;
72949;SDS011;64868;45.710;9.590;2023-01-29T14:02:28;27.83;;;14.52;;
72949;SDS011;64868;45.710;9.590;2023-01-29T14:08:00;27.63;;;13.90;;
72949;SDS011;64868;45.710;9.590;2023-01-29T14:10:30;27.48;;;14.18;;
72949;SDS011;64868;45.710;9.590;2023-01-29T14:15:28;24.17;;;12.10;;
72949;SDS011;64868;45.710;9.590;2023-01-29T14:20:49;29.92;;;13.70;;
72949;SDS011;64868;45.710;9.590;2023-01-29T14:25:58;27.00;;;13.10;;
72949;SDS011;64868;45.710;9.590;2023-01-29T14:28:31;28.25;;;13.48;;
72949;SDS011;64868;45.710;9.590;2023-01-29T14:31:00;26.38;;;13.50;;
72949;SDS011;64868;45.710;9.590;2023-01-29T14:33:36;26.40;;;12.57;;
72949;SDS011;64868;45.710;9.590;2023-01-29T14:36:08;27.02;;;13.15;;
72949;SDS011;64868;45.710;9.590;2023-01-29T14:38:40;26.17;;;12.93;;
72949;SDS011;64868;45.710;9.590;2023-01-29T14:41:33;26.52;;;13.32;;
72949;SDS011;64868;45.710;9.590;2023-01-29T14:47:51;25.38;;;12.95;;
72949;SDS011;64868;45.710;9.590;2023-01-29T14:56:23;24.05;;;12.18;;
72949;SDS011;64868;45.710;9.590;2023-01-29T14:59:10;27.42;;;12.73;;
72949;SDS011;64868;45.710;9.590;2023-01-29T15:01:46;24.48;;;12.35;;
72949;SDS011;64868;45.710;9.590;2023-01-29T15:04:36;27.48;;;12.57;;
72949;SDS011;64868;45.710;9.590;2023-01-29T15:12:57;27.33;;;12.45;;
72949;SDS011;64868;45.710;9.590;2023-01-29T15:18:39;25.60;;;12.00;;
72949;SDS011;64868;45.710;9.590;2023-01-29T15:21:12;27.08;;;12.73;;
72949;SDS011;64868;45.710;9.590;2023-01-29T15:23:42;28.63;;;13.38;;
72949;SDS011;64868;45.710;9.590;2023-01-29T15:26:16;27.17;;;12.88;;
72949;SDS011;64868;45.710;9.590;2023-01-29T15:29:01;27.27;;;13.10;;
72949;SDS011;64868;45.710;9.590;2023-01-29T15:31:32;26.83;;;13.15;;
72949;SDS011;64868;45.710;9.590;2023-01-29T15:34:05;26.75;;;13.27;;
72949;SDS011;64868;45.710;9.590;2023-01-29T15:36:36;27.75;;;12.93;;
72949;SDS011;64868;45.710;9.590;2023-01-29T15:39:21;26.83;;;13.45;;
72949;SDS011;64868;45.710;9.590;2023-01-29T15:42:13;26.40;;;12.98;;
72949;SDS011;64868;45.710;9.590;2023-01-29T15:44:48;30.15;;;13.82;;
72949;SDS011;64868;45.710;9.590;2023-01-29T15:47:24;28.98;;;13.50;;
72949;SDS011;64868;45.710;9.590;2023-01-29T15:50:00;31.55;;;14.07;;
72949;SDS011;64868;45.710;9.590;2023-01-29T15:52:27;27.35;;;13.25;;
72949;SDS011;64868;45.710;9.590;2023-01-29T15:55:01;26.77;;;13.23;;
72949;SDS011;64868;45.710;9.590;2023-01-29T15:57:35;26.40;;;13.85;;
72949;SDS011;64868;45.710;9.590;2023-01-29T16:00:20;25.15;;;12.95;;
72949;SDS011;64868;45.710;9.590;2023-01-29T16:02:53;28.25;;;13.35;;
72949;SDS011;64868;45.710;9.590;2023-01-29T16:05:28;26.23;;;13.32;;
72949;SDS011;64868;45.710;9.590;2023-01-29T16:08:00;27.75;;;13.65;;
72949;SDS011;64868;45.710;9.590;2023-01-29T16:10:31;29.38;;;14.18;;
72949;SDS011;64868;45.710;9.590;2023-01-29T16:13:08;34.28;;;15.73;;
72949;SDS011;64868;45.710;9.590;2023-01-29T16:18:59;31.70;;;16.17;;
72949;SDS011;64868;45.710;9.590;2023-01-29T16:21:39;29.45;;;15.88;;
72949;SDS011;64868;45.710;9.590;2023-01-29T16:24:17;30.65;;;14.77;;
72949;SDS011;64868;45.710;9.590;2023-01-29T16:26:51;31.48;;;16.00;;
72949;SDS011;64868;45.710;9.590;2023-01-29T16:29:28;32.97;;;15.48;;
72949;SDS011;64868;45.710;9.590;2023-01-29T16:32:07;31.20;;;15.35;;
72949;SDS011;64868;45.710;9.590;2023-01-29T16:34:54;29.20;;;15.35;;
72949;SDS011;64868;45.710;9.590;2023-01-29T16:37:32;30.52;;;15.30;;
72949;SDS011;64868;45.710;9.590;2023-01-29T16:40:20;33.78;;;16.35;;
72949;SDS011;64868;45.710;9.590;2023-01-29T16:46:04;33.95;;;17.27;;
72949;SDS011;64868;45.710;9.590;2023-01-29T16:48:42;33.13;;;16.23;;
72949;SDS011;64868;45.710;9.590;2023-01-29T16:54:05;35.92;;;18.33;;
72949;SDS011;64868;45.710;9.590;2023-01-29T16:56:37;39.88;;;19.83;;
72949;SDS011;64868;45.710;9.590;2023-01-29T16:59:15;35.25;;;17.75;;
72949;SDS011;64868;45.710;9.590;2023-01-29T17:01:45;37.38;;;18.83;;
72949;SDS011;64868;45.710;9.590;2023-01-29T17:04:16;38.10;;;18.75;;
72949;SDS011;64868;45.710;9.590;2023-01-29T17:06:44;40.33;;;19.10;;